Time;durP1;ratioP1;P1;durP2;ratioP2;P2;SDS_P1;SDS_P2;PMS_P1;PMS_P2;Temp;Humidity;BMP_temperature;BMP_pressure;BME280_temperature;BME280_humidity;BME280_pressure;Samples;Min_cycle;Max_cycle;Signal;HPM_P1;HPM_P2
2021/07/21 00:02:09;;;;;;;15.60;10.27;;;;;;;16.58;94.99;100841.81;4987249;28;20053;-71
2021/07/21 00:04:52;;;;;;;17.17;10.02;;;;;;;16.55;95.41;100849.38;5001172;28;20088;-70
2021/07/21 00:07:36;;;;;;;17.05;11.00;;;;;;;16.50;96.06;100844.50;4987291;28;20123;-70
2021/07/21 00:10:22;;;;;;;15.88;9.90;;;;;;;16.43;96.33;100848.03;5000724;28;20048;-70
2021/07/21 00:19:02;;;;;;;15.30;10.05;;;;;;;16.24;97.75;100846.50;5001378;28;20072;-71
2021/07/21 00:21:46;;;;;;;16.73;10.50;;;;;;;16.19;98.57;100843.44;5015640;28;20045;-70
2021/07/21 00:24:30;;;;;;;15.77;10.23;;;;;;;16.19;97.90;100839.94;5000890;28;20057;-71
2021/07/21 00:27:14;;;;;;;21.55;10.38;;;;;;;16.20;98.27;100834.41;5000386;28;20107;-70
2021/07/21 00:29:58;;;;;;;17.90;10.63;;;;;;;16.20;98.50;100839.78;5000685;28;20072;-70
2021/07/21 00:32:42;;;;;;;14.82;10.68;;;;;;;16.21;98.54;100836.06;5015214;28;20052;-70
2021/07/21 00:35:26;;;;;;;16.33;10.55;;;;;;;16.20;99.45;100831.72;5000755;28;20080;-70
2021/07/21 00:38:11;;;;;;;15.07;9.52;;;;;;;16.12;100.00;100837.06;4986828;28;20426;-70
2021/07/21 00:40:55;;;;;;;19.30;11.02;;;;;;;16.07;100.00;100834.00;5000491;28;20545;-70
2021/07/21 00:43:39;;;;;;;16.42;9.05;;;;;;;16.04;100.00;100837.06;4986534;28;20092;-71
2021/07/21 00:46:23;;;;;;;14.05;9.52;;;;;;;16.03;99.98;100840.75;5015263;28;20088;-69
2021/07/21 00:49:07;;;;;;;18.20;10.70;;;;;;;16.04;99.00;100853.19;5000238;28;20530;-71
2021/07/21 00:51:52;;;;;;;14.13;10.20;;;;;;;16.05;98.15;100844.09;5014955;28;20053;-70
2021/07/21 00:54:36;;;;;;;19.83;10.82;;;;;;;16.09;97.32;100850.00;4972894;28;20056;-71
2021/07/21 00:57:20;;;;;;;17.52;10.82;;;;;;;16.08;96.72;100835.69;5000559;28;20466;-71
2021/07/21 01:00:16;;;;;;;17.13;9.95;;;;;;;16.08;96.48;100846.44;4986615;28;20125;-70
2021/07/21 01:03:00;;;;;;;16.27;10.43;;;;;;;16.09;96.01;100842.75;5003042;23;20169;-71
2021/07/21 01:05:44;;;;;;;20.17;11.10;;;;;;;16.07;95.75;100846.66;4994357;28;20062;-71
2021/07/21 01:08:28;;;;;;;14.73;10.32;;;;;;;16.04;97.36;100849.63;4993923;28;20092;-70
2021/07/21 01:11:21;;;;;;;17.05;10.93;;;;;;;16.00;98.01;100851.84;4995478;28;20057;-70
2021/07/21 01:14:11;;;;;;;16.30;10.63;;;;;;;15.96;99.23;100855.03;5014041;28;20060;-71
2021/07/21 01:16:59;;;;;;;15.00;10.07;;;;;;;15.96;98.58;100853.16;5014003;28;20052;-70
2021/07/21 01:20:04;;;;;;;18.73;10.30;;;;;;;15.92;98.54;100845.59;5013895;28;20111;-70
2021/07/21 01:22:51;;;;;;;;;;;;;;;15.88;97.91;100837.00;5013752;28;20072;-71
2021/07/21 01:25:42;;;;;;;15.00;9.93;;;;;;;15.86;97.02;100836.31;5013520;28;19936;-71
2021/07/21 01:28:28;;;;;;;16.08;9.60;;;;;;;15.86;96.89;100839.00;5027069;28;20045;-69
2021/07/21 01:31:16;;;;;;;16.90;10.30;;;;;;;15.89;96.40;100832.47;5013173;28;20053;-70
2021/07/21 01:34:01;;;;;;;19.85;10.60;;;;;;;15.89;95.80;100837.84;4999559;28;20056;-71
2021/07/21 01:36:52;;;;;;;18.05;10.57;;;;;;;15.89;95.55;100833.34;5013318;28;20051;-71
2021/07/21 01:39:43;;;;;;;14.82;9.93;;;;;;;15.87;95.59;100835.31;5013530;28;20040;-71
2021/07/21 01:42:28;;;;;;;14.25;9.75;;;;;;;15.83;95.65;100836.66;5013261;28;20188;-70
2021/07/21 01:45:12;;;;;;;17.38;9.32;;;;;;;15.83;95.43;100838.50;5027114;28;20062;-70
2021/07/21 01:47:58;;;;;;;;;;;;;;;15.82;95.08;100834.97;5014443;28;20551;-70
2021/07/21 01:50:43;;;;;;;14.30;9.27;;;;;;;15.78;96.63;100830.91;5012870;28;19952;-71
2021/07/21 01:53:28;;;;;;;16.63;10.43;;;;;;;15.75;96.48;100823.19;5013128;28;20419;-71
2021/07/21 01:56:13;;;;;;;15.43;9.68;;;;;;;15.72;96.68;100822.66;4999437;28;20115;-70
2021/07/21 01:58:58;;;;;;;13.80;9.50;;;;;;;15.68;96.86;100824.84;5026636;28;20048;-70
2021/07/21 02:01:41;;;;;;;14.20;9.50;;;;;;;15.60;98.02;100831.22;5026666;28;20418;-71
2021/07/21 02:04:26;;;;;;;14.45;9.90;;;;;;;15.53;99.48;100822.94;5013135;28;20459;-70
2021/07/21 02:07:10;;;;;;;14.85;9.38;;;;;;;15.46;100.00;100824.63;5012835;28;20095;-70
2021/07/21 02:09:55;;;;;;;16.33;10.05;;;;;;;15.43;100.00;100829.47;5026683;28;20103;-71
2021/07/21 02:12:39;;;;;;;15.18;9.20;;;;;;;15.40;100.00;100829.81;5012571;28;20482;-70
2021/07/21 02:15:24;;;;;;;13.13;9.85;;;;;;;15.39;100.00;100822.75;5026969;28;20108;-70
2021/07/21 02:18:08;;;;;;;16.70;10.10;;;;;;;15.40;100.00;100825.25;5013544;28;20048;-70
2021/07/21 02:20:53;;;;;;;17.75;10.05;;;;;;;15.42;99.71;100827.78;5012720;28;20052;-70
2021/07/21 02:23:37;;;;;;;16.73;9.95;;;;;;;15.45;98.58;100828.31;4998925;28;20052;-71
2021/07/21 02:26:22;;;;;;;14.90;8.82;;;;;;;15.46;98.19;100821.94;5012865;28;20128;-71
2021/07/21 02:29:06;;;;;;;19.88;9.38;;;;;;;15.50;98.29;100833.19;5012557;28;20446;-70
2021/07/21 02:32:01;;;;;;;17.40;9.18;;;;;;;15.48;98.19;100829.81;5012398;28;20100;-70
2021/07/21 02:34:46;;;;;;;17.67;9.23;;;;;;;15.45;98.48;100832.81;5013308;28;20517;-71
2021/07/21 02:37:30;;;;;;;14.07;9.45;;;;;;;15.44;98.08;100839.22;5012526;28;20533;-70
2021/07/21 02:40:14;;;;;;;14.20;9.15;;;;;;;15.44;97.64;100840.06;5013528;28;20075;-68
2021/07/21 02:42:58;;;;;;;19.17;9.38;;;;;;;15.45;97.64;100832.81;5012476;28;20052;-71
2021/07/21 02:45:42;;;;;;;18.85;9.80;;;;;;;15.46;97.47;100840.75;5026155;28;20052;-70
2021/07/21 02:48:26;;;;;;;15.60;9.65;;;;;;;15.45;97.09;100838.19;5026312;28;20056;-70
2021/07/21 02:51:34;;;;;;;14.43;9.52;;;;;;;15.43;97.12;100834.84;5014399;28;20191;-70
2021/07/21 02:54:40;;;;;;;16.73;9.57;;;;;;;15.41;96.56;100837.69;5016385;28;20049;-71
2021/07/21 02:57:45;;;;;;;14.18;9.15;;;;;;;15.41;96.61;100842.22;5030163;28;20048;-70
2021/07/21 03:00:30;;;;;;;14.55;9.68;;;;;;;15.42;96.83;100838.53;5016114;28;20137;-70
2021/07/21 03:03:16;;;;;;;13.88;9.38;;;;;;;15.44;96.55;100836.53;5016006;28;20565;-71
2021/07/21 03:06:04;;;;;;;17.58;9.25;;;;;;;15.41;96.53;100843.06;5015903;28;20108;-71
2021/07/21 03:08:48;;;;;;;17.15;9.68;;;;;;;15.37;96.81;100841.69;5015988;28;20104;-71
2021/07/21 03:11:34;;;;;;;22.73;10.27;;;;;;;15.34;96.96;100851.91;5029715;28;20064;-71
2021/07/21 03:14:18;;;;;;;16.50;10.18;;;;;;;15.32;97.24;100854.75;5002427;28;20056;-71
2021/07/21 03:17:03;;;;;;;18.77;9.65;;;;;;;15.29;97.39;100855.06;5002083;28;20119;-70
2021/07/21 03:19:51;;;;;;;16.70;9.52;;;;;;;15.33;97.29;100855.63;5029756;28;20065;-71
2021/07/21 03:22:36;;;;;;;16.55;9.52;;;;;;;15.26;97.47;100847.31;5029781;28;20049;-70
2021/07/21 03:25:22;;;;;;;14.73;9.98;;;;;;;15.17;98.15;100850.97;5001707;28;20049;-71
2021/07/21 03:28:06;;;;;;;17.25;9.80;;;;;;;15.15;98.58;100862.88;5015765;28;20052;-70
2021/07/21 03:30:50;;;;;;;20.83;10.40;;;;;;;15.13;98.89;100854.13;5015686;28;20076;-70
2021/07/21 03:33:35;;;;;;;17.75;9.77;;;;;;;15.11;98.53;100858.81;5015627;28;20474;-70
2021/07/21 03:36:19;;;;;;;17.67;10.82;;;;;;;15.09;99.13;100864.34;5029269;28;20072;-70
2021/07/21 03:39:05;;;;;;;18.00;10.13;;;;;;;15.08;99.42;100862.66;5001463;28;20080;-71
2021/07/21 03:41:50;;;;;;;19.75;10.80;;;;;;;14.99;99.95;100865.47;5015143;28;20522;-70
2021/07/21 03:44:34;;;;;;;15.65;9.88;;;;;;;14.98;100.00;100869.97;5015176;28;20056;-70
2021/07/21 03:47:18;;;;;;;17.58;10.50;;;;;;;14.92;100.00;100867.91;5015612;28;20061;-70
2021/07/21 03:50:04;;;;;;;17.08;10.63;;;;;;;14.95;100.00;100872.13;5001496;28;20048;-71
2021/07/21 03:52:49;;;;;;;15.18;10.45;;;;;;;14.96;100.00;100871.97;5015235;28;20056;-70
2021/07/21 03:55:36;;;;;;;17.05;10.60;;;;;;;14.98;100.00;100872.66;5015260;28;20112;-70
2021/07/21 03:58:19;;;;;;;19.10;10.98;;;;;;;15.01;100.00;100877.72;5014945;28;20080;-71
2021/07/21 04:01:03;;;;;;;15.23;10.40;;;;;;;15.00;100.00;100881.41;5014422;28;20049;-72
2021/07/21 04:03:48;;;;;;;17.98;10.70;;;;;;;15.00;100.00;100875.19;5001218;28;20052;-70
2021/07/21 04:06:33;;;;;;;21.55;10.93;;;;;;;15.01;100.00;100882.25;5015040;28;20152;-70
2021/07/21 04:09:28;;;;;;;20.77;10.60;;;;;;;15.02;100.00;100894.69;5014874;28;20065;-71
2021/07/21 04:12:14;;;;;;;17.05;10.43;;;;;;;15.03;100.00;100897.22;5014911;28;20096;-70
2021/07/21 04:14:59;;;;;;;17.42;11.15;;;;;;;14.96;100.00;100889.91;5014893;28;20462;-71
2021/07/21 04:17:44;;;;;;;17.20;10.07;;;;;;;15.02;100.00;100905.41;5014786;28;20160;-70
2021/07/21 04:20:28;;;;;;;18.45;10.07;;;;;;;14.99;100.00;100898.50;5014769;28;20040;-71
2021/07/21 04:23:15;;;;;;;19.42;10.15;;;;;;;15.04;100.00;100892.66;5014404;28;20057;-71
2021/07/21 04:25:59;;;;;;;16.55;9.77;;;;;;;15.05;100.00;100900.56;5001086;28;20052;-71
2021/07/21 04:28:43;;;;;;;13.00;9.20;;;;;;;15.09;100.00;100901.13;5028916;28;20549;-70
2021/07/21 04:31:27;;;;;;;13.70;9.57;;;;;;;15.12;100.00;100901.63;5028395;28;20510;-70
2021/07/21 04:34:13;;;;;;;23.80;11.38;;;;;;;15.13;100.00;100897.97;5028481;28;20578;-70
2021/07/21 04:36:57;;;;;;;20.42;10.02;;;;;;;15.20;100.00;100908.91;5014416;28;20117;-70
2021/07/21 04:39:42;;;;;;;15.73;9.43;;;;;;;15.24;100.00;100904.88;5014135;28;20060;-70
2021/07/21 04:42:27;;;;;;;16.95;10.48;;;;;;;15.21;100.00;100899.84;5028079;28;20514;-70
2021/07/21 04:45:12;;;;;;;17.55;10.23;;;;;;;15.22;100.00;100901.53;5014011;28;20057;-70
2021/07/21 04:47:56;;;;;;;19.13;10.48;;;;;;;15.33;100.00;100903.97;5013955;28;20084;-70
2021/07/21 04:50:44;;;;;;;24.42;12.50;;;;;;;15.39;99.55;100900.66;5013878;28;20072;-70
2021/07/21 04:53:30;;;;;;;15.05;9.27;;;;;;;15.43;98.82;100907.38;5014197;28;20069;-70
2021/07/21 04:56:14;;;;;;;17.90;10.02;;;;;;;15.44;98.77;100906.38;5014266;28;20048;-70
2021/07/21 04:58:58;;;;;;;19.27;10.27;;;;;;;15.55;98.01;100911.47;5015050;28;20091;-70
2021/07/21 05:01:45;;;;;;;16.60;9.68;;;;;;;15.61;97.77;100908.16;5013996;28;20410;-70
2021/07/21 05:04:29;;;;;;;18.35;10.32;;;;;;;15.67;96.91;100911.03;5013673;28;20418;-70
2021/07/21 05:07:15;;;;;;;14.80;9.23;;;;;;;15.70;96.58;100911.56;5013747;28;20080;-70
2021/07/21 05:09:59;;;;;;;16.23;10.55;;;;;;;15.84;96.17;100921.69;5027326;28;20065;-70
2021/07/21 05:12:44;;;;;;;17.23;10.68;;;;;;;15.89;95.12;100921.22;5013156;28;20407;-68
2021/07/21 05:15:30;;;;;;;16.20;10.50;;;;;;;15.92;95.58;100932.50;4999722;28;20100;-70
2021/07/21 05:18:14;;;;;;;15.35;9.10;;;;;;;15.98;94.98;100934.50;5014379;28;20051;-70
2021/07/21 05:20:58;;;;;;;16.10;10.13;;;;;;;16.04;94.59;100943.78;5027548;28;20092;-70
2021/07/21 05:23:42;;;;;;;17.02;10.13;;;;;;;16.14;93.73;100939.09;5014560;28;20103;-70
2021/07/21 05:26:26;;;;;;;14.13;9.05;;;;;;;16.19;94.46;100940.28;5013530;28;20135;-70
2021/07/21 05:29:10;;;;;;;14.23;10.18;;;;;;;16.27;92.83;100945.69;5013480;28;20100;-70
2021/07/21 05:31:54;;;;;;;13.70;9.43;;;;;;;16.31;93.01;100947.06;5013195;28;20057;-70
2021/07/21 05:34:38;;;;;;;16.38;10.80;;;;;;;16.31;93.06;100947.06;5027599;28;20529;-70
2021/07/21 05:37:22;;;;;;;19.33;11.15;;;;;;;16.35;93.12;100951.09;5013122;28;20561;-70
2021/07/21 05:40:07;;;;;;;20.40;10.95;;;;;;;16.42;92.79;100941.41;4999475;28;20064;-70
2021/07/21 05:42:51;;;;;;;17.27;10.73;;;;;;;16.55;92.66;100944.44;5013223;28;20048;-70
2021/07/21 05:45:35;;;;;;;14.90;10.07;;;;;;;16.60;92.24;100944.78;5014189;28;20049;-70
2021/07/21 05:48:19;;;;;;;15.35;10.10;;;;;;;16.61;93.05;100946.50;5013057;28;20116;-70
2021/07/21 05:51:03;;;;;;;20.23;9.98;;;;;;;16.76;93.13;100955.59;5014039;28;20045;-69
2021/07/21 05:53:47;;;;;;;17.02;10.32;;;;;;;16.74;92.89;100954.06;5027057;28;20097;-70
2021/07/21 05:56:31;;;;;;;18.55;10.88;;;;;;;16.83;92.15;100959.31;5013103;28;20071;-70
2021/07/21 05:59:15;;;;;;;15.02;10.27;;;;;;;16.91;91.90;100950.38;5013031;28;20498;-70
2021/07/21 06:01:59;;;;;;;16.35;10.43;;;;;;;16.92;90.92;100958.28;4998873;28;20056;-70
2021/07/21 06:04:43;;;;;;;19.00;10.68;;;;;;;17.04;90.58;100962.34;4999108;28;20202;-70
2021/07/21 06:07:27;;;;;;;18.85;10.48;;;;;;;17.07;90.92;100961.13;5012894;28;20553;-70
2021/07/21 06:10:12;;;;;;;19.23;10.77;;;;;;;17.17;90.00;100962.66;5013506;28;20510;-70
2021/07/21 06:12:55;;;;;;;15.65;10.32;;;;;;;17.22;89.63;100971.09;4999178;28;20060;-70
2021/07/21 06:15:40;;;;;;;17.00;9.93;;;;;;;17.35;88.97;100982.22;5013800;28;20049;-70
2021/07/21 06:18:24;;;;;;;16.65;9.57;;;;;;;17.45;89.01;100972.09;5013735;28;20052;-69
2021/07/21 06:21:08;;;;;;;16.23;9.65;;;;;;;17.53;88.19;100966.69;5013634;28;20506;-69
2021/07/21 06:23:52;;;;;;;18.90;10.07;;;;;;;17.63;86.77;100964.66;5012382;28;20048;-70
2021/07/21 06:26:36;;;;;;;18.00;9.45;;;;;;;17.74;87.00;100972.38;5012378;28;20422;-70
2021/07/21 06:29:21;;;;;;;13.98;9.55;;;;;;;17.80;86.30;100978.91;5012549;28;20123;-70
2021/07/21 06:32:05;;;;;;;14.60;9.23;;;;;;;17.93;85.54;100988.13;5012391;28;20088;-70
2021/07/21 06:34:49;;;;;;;13.82;9.23;;;;;;;18.05;85.50;100984.06;5026525;28;20116;-70
2021/07/21 06:37:34;;;;;;;12.85;8.90;;;;;;;18.13;84.63;100978.59;5013615;28;20047;-70
2021/07/21 06:40:19;;;;;;;14.18;8.80;;;;;;;18.21;82.87;100985.84;5026431;28;20687;-70
2021/07/21 06:43:04;;;;;;;15.50;9.30;;;;;;;18.27;83.44;100987.81;5014093;28;20103;-69
2021/07/21 06:45:48;;;;;;;15.82;9.10;;;;;;;18.34;82.64;100986.97;5013228;28;20045;-70
2021/07/21 06:48:32;;;;;;;14.18;8.38;;;;;;;18.47;81.80;100989.94;5026317;28;20076;-70
2021/07/21 06:51:16;;;;;;;15.10;8.60;;;;;;;18.57;81.48;100993.25;5026312;28;20060;-70
2021/07/21 06:54:00;;;;;;;11.35;8.05;;;;;;;18.69;79.75;101008.88;5026396;28;20100;-70
2021/07/21 06:56:44;;;;;;;10.95;7.15;;;;;;;18.82;77.43;100994.78;5026088;28;20053;-71
2021/07/21 06:59:28;;;;;;;14.90;8.40;;;;;;;18.93;75.28;101005.16;5026321;28;20151;-71
2021/07/21 07:02:12;;;;;;;13.30;8.48;;;;;;;19.00;74.12;101006.97;5048096;23;20080;-67
2021/07/21 07:04:56;;;;;;;12.85;8.25;;;;;;;19.08;73.35;100997.97;5012396;28;20556;-68
2021/07/21 07:07:40;;;;;;;12.43;7.75;;;;;;;19.09;73.11;101002.34;5013147;28;20084;-67
2021/07/21 07:10:24;;;;;;;15.98;7.07;;;;;;;19.22;73.37;100994.50;5012458;28;20080;-67
2021/07/21 07:13:08;;;;;;;13.13;7.88;;;;;;;19.33;73.10;101002.16;5024434;28;20095;-68
2021/07/21 07:15:55;;;;;;;11.02;7.70;;;;;;;19.36;72.97;100997.25;5031776;28;20472;-67
2021/07/21 07:18:38;;;;;;;13.27;7.95;;;;;;;19.41;72.33;100994.00;5031844;28;20052;-67
2021/07/21 07:21:24;;;;;;;;;;;;;;;19.45;72.32;101000.69;5032327;28;20047;-66
2021/07/21 07:24:07;;;;;;;;;;;;;;;19.54;71.75;101000.44;5032528;28;19920;-67
2021/07/21 07:26:51;;;;;;;12.03;7.77;;;;;;;19.63;71.62;101003.91;5031682;28;20023;-67
2021/07/21 07:29:36;;;;;;;14.68;8.98;;;;;;;19.71;72.47;101001.94;5017840;28;20045;-67
2021/07/21 07:32:20;;;;;;;13.80;8.15;;;;;;;19.80;71.59;101002.72;5031513;28;20530;-67
2021/07/21 07:35:05;;;;;;;15.63;8.38;;;;;;;19.87;71.32;101006.34;5032836;28;20052;-67
2021/07/21 07:37:49;;;;;;;13.50;7.50;;;;;;;19.85;71.24;101003.00;5034637;28;20049;-67
2021/07/21 07:40:32;;;;;;;10.73;8.02;;;;;;;19.97;71.58;101004.19;5035369;28;20048;-67
2021/07/21 07:43:16;;;;;;;13.35;8.02;;;;;;;20.07;71.49;101007.50;5036325;28;20048;-67
2021/07/21 07:46:00;;;;;;;10.13;7.97;;;;;;;20.10;70.15;100999.84;5021559;28;20053;-67
2021/07/21 07:48:44;;;;;;;12.95;7.43;;;;;;;20.16;70.73;101000.97;5035159;28;20048;-67
2021/07/21 07:51:29;;;;;;;12.10;7.60;;;;;;;20.14;68.53;101009.28;5035917;28;20522;-67
2021/07/21 07:54:15;;;;;;;12.13;7.38;;;;;;;20.22;68.06;101009.16;5035155;28;20095;-67
2021/07/21 07:56:59;;;;;;;11.55;7.18;;;;;;;20.30;68.05;101002.84;5035096;28;20067;-67
2021/07/21 07:59:43;;;;;;;14.85;7.65;;;;;;;20.40;68.34;101009.63;5034797;28;20068;-65
2021/07/21 08:02:27;;;;;;;13.63;7.85;;;;;;;20.53;68.97;101001.63;5034441;28;20052;-67
2021/07/21 08:05:12;;;;;;;11.05;7.75;;;;;;;20.65;68.78;100991.16;5035972;28;20505;-67
2021/07/21 08:08:01;;;;;;;10.18;7.38;;;;;;;20.76;67.69;100987.94;5034835;28;20053;-68
2021/07/21 08:10:44;;;;;;;11.25;6.80;;;;;;;20.81;67.14;100982.81;5035704;28;20056;-67
2021/07/21 08:13:29;;;;;;;11.15;6.97;;;;;;;20.92;66.31;100983.13;5035393;28;20128;-66
2021/07/21 08:16:14;;;;;;;11.90;7.50;;;;;;;20.98;64.37;100986.94;5034376;28;20083;-66
2021/07/21 08:18:58;;;;;;;15.82;7.47;;;;;;;21.07;65.19;100986.63;5034503;28;20048;-67
2021/07/21 08:21:42;;;;;;;9.10;6.88;;;;;;;21.17;65.02;100991.72;5035222;28;20049;-67
2021/07/21 08:24:26;;;;;;;12.73;7.20;;;;;;;21.29;65.70;100985.59;5035174;28;20126;-67
2021/07/21 08:27:10;;;;;;;11.68;7.43;;;;;;;21.37;64.24;100993.59;5034463;28;20053;-67
2021/07/21 08:29:54;;;;;;;13.20;7.70;;;;;;;21.45;63.45;100991.56;5034457;28;20096;-67
2021/07/21 08:32:52;;;;;;;13.85;8.27;;;;;;;21.54;63.03;100979.53;5035099;28;20552;-67
2021/07/21 08:35:36;;;;;;;12.85;7.80;;;;;;;21.60;61.80;100978.72;5034002;28;20048;-67
2021/07/21 08:38:20;;;;;;;11.23;7.43;;;;;;;21.71;63.66;100980.91;5020263;28;20406;-67
2021/07/21 08:41:04;;;;;;;9.32;7.10;;;;;;;21.78;63.40;100981.81;5034471;28;20045;-67
2021/07/21 08:43:47;;;;;;;11.43;7.07;;;;;;;21.94;62.34;100980.63;5034779;28;20468;-67
2021/07/21 08:46:31;;;;;;;;;;;;;;;22.00;61.33;100985.28;5034624;28;20052;-67
2021/07/21 08:49:15;;;;;;;12.70;7.72;;;;;;;22.16;60.71;100974.91;5034039;28;19947;-67
2021/07/21 08:51:59;;;;;;;;;;;;;;;22.23;61.32;100980.38;5034515;28;20071;-67
2021/07/21 08:54:46;;;;;;;11.17;6.67;;;;;;;22.42;59.79;100975.03;5033782;28;20351;-67
2021/07/21 08:57:32;;;;;;;12.25;7.28;;;;;;;22.48;58.10;100979.69;5033929;28;20095;-67
2021/07/21 09:00:17;;;;;;;10.13;7.90;;;;;;;22.58;57.81;100973.84;5033625;28;20518;-67
2021/07/21 09:03:02;;;;;;;14.20;8.23;;;;;;;22.48;57.26;100974.25;5034667;28;20048;-67
2021/07/21 09:05:51;;;;;;;8.88;6.68;;;;;;;22.70;57.54;100966.78;5033474;28;20048;-67
2021/07/21 09:08:35;;;;;;;9.65;7.35;;;;;;;22.84;58.64;100979.38;5033736;28;20139;-67
2021/07/21 09:11:19;;;;;;;10.13;7.07;;;;;;;22.92;56.81;100982.72;5033420;28;20445;-67
2021/07/21 09:14:04;;;;;;;10.45;6.85;;;;;;;23.03;56.34;100989.44;5033827;28;20040;-67
2021/07/21 09:17:11;;;;;;;15.55;6.90;;;;;;;23.16;56.65;100979.44;5019866;28;20048;-68
2021/07/21 09:19:55;;;;;;;10.02;6.93;;;;;;;23.35;56.50;100986.75;5033284;28;20064;-67
2021/07/21 09:22:40;;;;;;;13.90;6.97;;;;;;;23.50;56.39;100981.94;5033288;28;20048;-67
2021/07/21 09:25:27;;;;;;;11.30;7.22;;;;;;;23.59;53.80;100980.69;5034114;28;20104;-67
2021/07/21 09:28:12;;;;;;;9.40;7.38;;;;;;;23.65;53.52;100979.81;5033335;28;20171;-67
2021/07/21 09:30:57;;;;;;;11.30;7.10;;;;;;;23.79;53.23;100986.09;5033342;28;20056;-67
2021/07/21 09:33:43;;;;;;;12.15;7.75;;;;;;;23.91;53.24;100995.31;5032978;28;20056;-67
2021/07/21 09:36:27;;;;;;;10.93;7.22;;;;;;;24.13;52.66;100988.56;5034291;28;20056;-67
2021/07/21 09:39:11;;;;;;;12.82;7.00;;;;;;;24.33;51.76;100984.72;5019068;28;20121;-67
2021/07/21 09:41:55;;;;;;;11.93;7.00;;;;;;;24.47;51.20;100989.03;5018771;28;20462;-68
2021/07/21 09:44:42;;;;;;;12.35;7.22;;;;;;;24.69;50.54;100985.00;5019094;28;20067;-67
2021/07/21 09:47:26;;;;;;;9.57;6.63;;;;;;;24.97;49.52;100988.16;5033079;28;20111;-67
2021/07/21 09:50:13;;;;;;;12.40;6.85;;;;;;;25.20;50.01;100989.28;5033934;28;20075;-67
2021/07/21 09:53:04;;;;;;;11.10;7.47;;;;;;;25.50;49.69;100984.00;5032770;28;20474;-67
2021/07/21 09:55:50;;;;;;;10.88;7.18;;;;;;;25.60;48.37;100987.06;5032915;28;20510;-67
2021/07/21 09:58:36;;;;;;;10.15;7.03;;;;;;;25.85;47.46;100985.16;5032770;28;20068;-65
2021/07/21 10:01:30;;;;;;;10.90;6.70;;;;;;;26.12;46.82;100976.47;5032770;28;20126;-67
2021/07/21 10:04:30;;;;;;;11.30;6.90;;;;;;;26.43;46.67;100981.75;5032868;28;20053;-67
2021/07/21 10:10:22;;;;;;;10.68;7.20;;;;;;;27.17;44.71;100976.75;5033301;28;20056;-67
2021/07/21 10:13:10;;;;;;;14.73;7.65;;;;;;;27.46;42.43;100979.41;5032397;28;20114;-67
2021/07/21 10:15:54;;;;;;;10.60;6.97;;;;;;;27.77;41.18;100973.63;5032573;28;20505;-67
2021/07/21 10:18:38;;;;;;;11.02;7.30;;;;;;;27.96;41.39;100975.16;5032519;28;20052;-66
2021/07/21 10:21:22;;;;;;;;;;;;;;;28.32;39.97;100966.59;5019059;28;20517;-67
2021/07/21 10:24:07;;;;;;;10.35;6.82;;;;;;;28.84;39.10;100964.66;5032157;28;19919;-67
2021/07/21 10:26:52;;;;;;;12.85;6.95;;;;;;;29.53;38.55;100956.88;5032474;28;20052;-68
2021/07/21 10:29:37;;;;;;;11.82;7.20;;;;;;;30.57;36.14;100964.91;5032253;28;20094;-67
2021/07/21 10:32:21;;;;;;;10.90;7.55;;;;;;;31.56;34.65;100958.78;5018404;28;20052;-68
2021/07/21 10:35:07;;;;;;;12.48;6.95;;;;;;;32.49;32.69;100969.81;5018439;28;20088;-67
2021/07/21 10:37:55;;;;;;;9.88;6.55;;;;;;;34.67;30.56;100962.53;5032361;28;20052;-67
2021/07/21 10:40:39;;;;;;;22.23;8.10;;;;;;;36.04;26.79;100961.16;5032297;28;20075;-67
2021/07/21 10:43:28;;;;;;;15.15;12.00;;;;;;;37.40;25.63;100957.03;5031973;28;20048;-65
2021/07/21 10:46:30;;;;;;;11.30;7.45;;;;;;;36.14;26.22;100948.03;5032079;28;20045;-68
2021/07/21 10:50:08;;;;;;;10.73;7.20;;;;;;;37.39;24.82;100951.81;5032817;28;20103;-67
2021/07/21 10:55:31;;;;;;;9.13;6.93;;;;;;;38.32;24.23;100949.50;5032222;28;20056;-67
2021/07/21 11:01:25;;;;;;;;;;;;;;;38.74;22.68;100944.41;5032672;28;20053;-67
2021/07/21 11:04:09;;;;;;;9.75;7.97;;;;;;;39.11;22.49;100941.28;5032828;28;19959;-67
2021/07/21 11:06:54;;;;;;;10.13;7.82;;;;;;;39.53;22.41;100936.03;5032302;28;20055;-66
2021/07/21 11:09:41;;;;;;;9.32;7.38;;;;;;;40.16;21.63;100939.34;5032043;28;20052;-67
2021/07/21 11:12:32;;;;;;;8.57;7.45;;;;;;;41.14;20.81;100932.91;5034082;28;20056;-67
2021/07/21 11:15:44;;;;;;;8.73;7.82;;;;;;;40.62;20.94;100922.84;5035804;28;20158;-67
2021/07/21 11:18:34;;;;;;;8.75;7.50;;;;;;;40.28;21.17;100928.34;5035797;28;20107;-67
2021/07/21 11:21:20;;;;;;;11.52;8.05;;;;;;;40.75;20.47;100926.66;5036345;28;20045;-67
2021/07/21 11:24:10;;;;;;;9.88;7.80;;;;;;;40.29;21.66;100929.19;5036373;28;20079;-67
2021/07/21 11:26:55;;;;;;;9.35;7.35;;;;;;;39.83;21.48;100926.88;5035707;28;20236;-66
2021/07/21 11:29:39;;;;;;;9.40;7.80;;;;;;;40.65;21.29;100932.56;5035202;28;20060;-68
2021/07/21 11:32:27;;;;;;;10.48;7.60;;;;;;;40.80;20.78;100924.50;5036169;28;20465;-67
2021/07/21 11:35:36;;;;;;;8.70;7.78;;;;;;;41.09;21.10;100921.91;5035235;28;20044;-67
2021/07/21 11:38:50;;;;;;;9.05;8.05;;;;;;;41.57;20.01;100916.91;5035457;28;20071;-67
2021/07/21 11:41:54;;;;;;;11.30;7.85;;;;;;;42.20;18.80;100916.84;5035111;28;20224;-65
2021/07/21 11:44:40;;;;;;;10.52;8.52;;;;;;;42.17;18.83;100908.31;5035988;28;20409;-67
2021/07/21 11:47:24;;;;;;;8.48;7.63;;;;;;;42.31;18.92;100912.50;5036150;28;20047;-66
2021/07/21 11:50:12;;;;;;;10.23;7.75;;;;;;;42.91;18.60;100910.13;5035084;28;20422;-68
2021/07/21 11:52:58;;;;;;;9.40;8.02;;;;;;;43.40;18.66;100898.75;5021127;28;20453;-68
2021/07/21 11:55:42;;;;;;;11.48;8.65;;;;;;;43.77;18.09;100905.28;5035974;28;20052;-68
2021/07/21 11:58:31;;;;;;;11.10;8.07;;;;;;;43.44;18.10;100901.69;5036093;28;20052;-68
2021/07/21 12:01:25;;;;;;;8.68;7.60;;;;;;;42.91;17.99;100896.91;5035751;28;20045;-68
2021/07/21 12:04:09;;;;;;;10.93;8.50;;;;;;;42.73;17.61;100900.19;5035919;28;20107;-68
2021/07/21 12:06:53;;;;;;;12.45;8.32;;;;;;;43.00;18.49;100899.66;5034707;28;20464;-67
2021/07/21 12:09:39;;;;;;;15.43;9.20;;;;;;;42.53;18.23;100897.38;5035986;28;20111;-67
2021/07/21 12:12:25;;;;;;;9.05;7.85;;;;;;;42.95;18.80;100902.66;5034575;28;20064;-67
2021/07/21 12:15:11;;;;;;;9.02;7.85;;;;;;;42.55;17.97;100906.28;5035070;28;20103;-66
2021/07/21 12:18:06;;;;;;;11.70;8.38;;;;;;;42.64;18.49;100899.44;5035503;28;20140;-67
2021/07/21 12:20:51;;;;;;;14.32;10.35;;;;;;;42.91;18.59;100893.28;5020605;28;20040;-67
2021/07/21 12:23:35;;;;;;;12.05;8.30;;;;;;;43.14;17.78;100894.56;5020332;28;20545;-68
2021/07/21 12:26:19;;;;;;;10.52;8.00;;;;;;;43.75;18.07;100893.59;5034921;28;20140;-67
2021/07/21 12:29:03;;;;;;;10.45;8.93;;;;;;;44.15;16.95;100891.75;5034500;28;20048;-68
2021/07/21 12:31:47;;;;;;;10.82;9.00;;;;;;;44.02;17.28;100882.47;5035117;28;20128;-68
2021/07/21 12:34:31;;;;;;;13.75;8.70;;;;;;;43.73;17.01;100873.47;5034471;28;20418;-68
2021/07/21 12:37:18;;;;;;;9.40;8.20;;;;;;;42.40;18.07;100882.44;5034630;28;20079;-67
2021/07/21 12:40:09;;;;;;;11.57;9.43;;;;;;;42.63;18.07;100882.94;5034256;28;20076;-67
2021/07/21 12:42:55;;;;;;;10.20;8.80;;;;;;;41.61;18.74;100883.47;5020469;28;20048;-67
2021/07/21 12:45:39;;;;;;;9.93;8.50;;;;;;;42.09;18.17;100887.56;5033999;28;20053;-67
2021/07/21 12:48:23;;;;;;;13.27;9.05;;;;;;;42.07;18.41;100877.84;5035013;28;20411;-68
2021/07/21 12:51:07;;;;;;;10.02;8.90;;;;;;;41.66;18.47;100881.31;5034024;28;20052;-65
2021/07/21 12:53:50;;;;;;;13.35;9.23;;;;;;;41.78;18.86;100867.44;5019987;28;20080;-67
2021/07/21 12:56:34;;;;;;;10.13;9.05;;;;;;;41.93;18.32;100866.88;5033857;28;20106;-67
2021/07/21 12:59:18;;;;;;;10.18;9.18;;;;;;;42.44;17.38;100863.75;5033704;28;20464;-67